createdAt,value
2023-05-09T00:00:24.636Z,19.2362
2023-05-09T00:01:26.569Z,19.2506
2023-05-09T00:02:28.413Z,19.2572
2023-05-09T00:03:30.159Z,19.2578
2023-05-09T00:04:32.021Z,19.2800
2023-05-09T00:05:33.822Z,19.2944
2023-05-09T00:06:35.652Z,19.2771
2023-05-09T00:07:37.489Z,19.2521
2023-05-09T00:08:39.295Z,19.2514
2023-05-09T00:09:41.169Z,19.2664
2023-05-09T00:10:42.978Z,19.2763
2023-05-09T00:11:44.823Z,19.2818
2023-05-09T00:12:46.664Z,19.3098
2023-05-09T00:13:48.480Z,19.3211
2023-05-09T00:14:50.315Z,19.3122
2023-05-09T00:15:52.144Z,19.3299
2023-05-09T00:16:54.163Z,19.3254
2023-05-09T00:17:55.855Z,19.3437
2023-05-09T00:18:57.654Z,19.3266
2023-05-09T00:19:59.464Z,19.2936
2023-05-09T00:21:01.305Z,19.3283
2023-05-09T00:22:03.149Z,19.3077
2023-05-09T00:23:05.070Z,19.2868
2023-05-09T00:24:06.799Z,19.2821
2023-05-09T00:25:08.615Z,19.3268
2023-05-09T00:26:10.471Z,19.3441
2023-05-09T00:27:12.352Z,19.3433
2023-05-09T00:28:14.150Z,19.3350
2023-05-09T00:29:15.968Z,19.3246
2023-05-09T00:30:17.828Z,19.3342
2023-05-09T00:31:19.617Z,19.3318
2023-05-09T00:32:21.539Z,19.3369
2023-05-09T00:33:23.295Z,19.3311
2023-05-09T00:34:25.121Z,19.3149
2023-05-09T00:35:27.016Z,19.2946
2023-05-09T00:36:28.778Z,19.2777
2023-05-09T00:37:30.624Z,19.2901
2023-05-09T00:38:32.458Z,19.2849
2023-05-09T00:39:34.288Z,19.2909
2023-05-09T00:40:36.112Z,19.2907
2023-05-09T00:41:37.927Z,19.3094
2023-05-09T00:42:39.766Z,19.3003
2023-05-09T00:43:41.618Z,19.2991
2023-05-09T00:44:43.489Z,19.3223
2023-05-09T00:45:45.304Z,19.3170
2023-05-09T00:46:47.105Z,19.3178
2023-05-09T00:47:49.518Z,19.3001
2023-05-09T00:48:50.783Z,19.2960
2023-05-09T00:49:52.615Z,19.2962
2023-05-09T00:50:54.513Z,19.2845
2023-05-09T00:51:56.255Z,19.2697
2023-05-09T00:52:58.175Z,19.2597
2023-05-09T00:53:59.942Z,19.2814
2023-05-09T00:55:01.774Z,19.2796
2023-05-09T00:56:03.593Z,19.2872
2023-05-09T00:57:05.448Z,19.2724
2023-05-09T00:58:07.265Z,19.2687
2023-05-09T00:59:09.088Z,19.2652
2023-05-09T01:00:10.910Z,19.2814
2023-05-09T01:01:12.797Z,19.2767
2023-05-09T01:02:14.618Z,19.2728
2023-05-09T01:03:16.622Z,19.2560
2023-05-09T01:04:18.268Z,19.2584
2023-05-09T01:05:20.098Z,19.2418
2023-05-09T01:06:21.921Z,19.2270
2023-05-09T01:07:23.754Z,19.2525
2023-05-09T01:08:25.590Z,19.2644
2023-05-09T01:09:27.420Z,19.2619
2023-05-09T01:10:29.273Z,19.2473
2023-05-09T01:11:31.110Z,19.2533
2023-05-09T01:12:32.926Z,19.2381
2023-05-09T01:13:34.777Z,19.2399
2023-05-09T01:14:36.607Z,19.2054
2023-05-09T01:15:38.468Z,19.2176
2023-05-09T01:16:40.265Z,19.2387
2023-05-09T01:17:42.124Z,19.2453
2023-05-09T01:18:44.137Z,19.2428
2023-05-09T01:19:45.797Z,19.2323
2023-05-09T01:20:47.626Z,19.2490
2023-05-09T01:21:49.485Z,19.2262
2023-05-09T01:22:51.313Z,19.2132
2023-05-09T01:23:53.172Z,19.2325
2023-05-09T01:24:55.072Z,19.2330
2023-05-09T01:25:56.820Z,19.2344
2023-05-09T01:26:58.660Z,19.2299
2023-05-09T01:28:00.510Z,19.2365
2023-05-09T01:29:02.318Z,19.2221
2023-05-09T01:30:04.147Z,19.2266
2023-05-09T01:31:06.056Z,19.2256
2023-05-09T01:32:07.889Z,19.2307
2023-05-09T01:33:09.754Z,19.2430
2023-05-09T01:34:11.590Z,19.2543
2023-05-09T01:35:13.458Z,19.2556
2023-05-09T01:36:15.168Z,19.2295
2023-05-09T01:37:16.999Z,19.2178
2023-05-09T01:38:18.841Z,19.2169
2023-05-09T01:39:20.659Z,19.2247
2023-05-09T01:40:22.514Z,19.2097
2023-05-09T01:41:24.440Z,19.1902
2023-05-09T01:42:26.166Z,19.1604
2023-05-09T01:43:28.061Z,19.1615
2023-05-09T01:44:29.856Z,19.1570
2023-05-09T01:45:31.739Z,19.1631
2023-05-09T01:46:33.544Z,19.1613
2023-05-09T01:47:35.412Z,19.1765
2023-05-09T01:48:37.201Z,19.1670
2023-05-09T01:49:39.124Z,19.1855
2023-05-09T01:50:40.848Z,19.2003
2023-05-09T01:51:43.866Z,19.1652
2023-05-09T01:52:44.532Z,19.1978
2023-05-09T01:53:46.380Z,19.2061
2023-05-09T01:54:48.201Z,19.2153
2023-05-09T01:55:50.028Z,19.2506
2023-05-09T01:56:51.877Z,19.2365
2023-05-09T01:57:53.697Z,19.2095
2023-05-09T01:58:55.614Z,19.2100
2023-05-09T01:59:57.505Z,19.2301
2023-05-09T02:00:59.328Z,19.2701
2023-05-09T02:02:01.157Z,19.2925
2023-05-09T02:03:03.001Z,19.3104
2023-05-09T02:04:04.780Z,19.3143
2023-05-09T02:05:06.708Z,19.3344
2023-05-09T02:06:16.360Z,19.3348
2023-05-09T02:07:10.282Z,19.3110
2023-05-09T02:08:12.117Z,19.2866
2023-05-09T02:09:13.954Z,19.2697
2023-05-09T02:10:15.827Z,19.2767
2023-05-09T02:11:25.179Z,19.2874
2023-05-09T02:12:19.513Z,19.2847
2023-05-09T02:13:21.421Z,19.2697
2023-05-09T02:14:23.148Z,19.2833
2023-05-09T02:15:25.016Z,19.3077
2023-05-09T02:16:26.804Z,19.3094
2023-05-09T02:17:28.679Z,19.2964
2023-05-09T02:18:30.462Z,19.2884
2023-05-09T02:19:32.299Z,19.2740
2023-05-09T02:20:34.227Z,19.2703
2023-05-09T02:21:35.967Z,19.2701
2023-05-09T02:22:37.814Z,19.2634
2023-05-09T02:23:39.635Z,19.2599
2023-05-09T02:24:41.467Z,19.2416
2023-05-09T02:25:43.312Z,19.2334
2023-05-09T02:26:45.172Z,19.2260
2023-05-09T02:27:46.997Z,19.2249
2023-05-09T02:28:48.824Z,19.2143
2023-05-09T02:29:50.641Z,19.2229
2023-05-09T02:30:52.496Z,19.2352
2023-05-09T02:31:54.353Z,19.2410
2023-05-09T02:32:56.219Z,19.2091
2023-05-09T02:33:57.989Z,19.2114
2023-05-09T02:34:59.829Z,19.2106
2023-05-09T02:36:01.760Z,19.1960
2023-05-09T02:37:03.511Z,19.2108
2023-05-09T02:38:05.366Z,19.1970
2023-05-09T02:39:07.204Z,19.1730
2023-05-09T02:40:09.019Z,19.1964
2023-05-09T02:41:10.852Z,19.2145
2023-05-09T02:42:12.698Z,19.1904
2023-05-09T02:43:14.509Z,19.1902
2023-05-09T02:44:16.354Z,19.1925
2023-05-09T02:45:18.204Z,19.2124
2023-05-09T02:46:20.070Z,19.2017
2023-05-09T02:47:21.857Z,19.1886
2023-05-09T02:48:23.700Z,19.1896
2023-05-09T02:49:32.072Z,19.1711
2023-05-09T02:50:28.353Z,19.1411
2023-05-09T02:51:29.297Z,19.1457
2023-05-09T02:52:31.032Z,19.1531
2023-05-09T02:53:32.877Z,19.1282
2023-05-09T02:54:34.707Z,19.1091
2023-05-09T02:55:36.521Z,19.0980
2023-05-09T02:56:38.361Z,19.1487
2023-05-09T02:57:40.243Z,19.1163
2023-05-09T02:58:42.050Z,19.1157
2023-05-09T02:59:43.879Z,19.1266
2023-05-09T03:00:45.713Z,19.1319
2023-05-09T03:01:47.565Z,19.1237
2023-05-09T03:02:49.420Z,19.1128
2023-05-09T03:03:51.268Z,19.1233
2023-05-09T03:04:53.046Z,19.1399
2023-05-09T03:05:54.880Z,19.1508
2023-05-09T03:06:56.796Z,19.1656
2023-05-09T03:07:58.557Z,19.1483
2023-05-09T03:09:00.379Z,19.1116
2023-05-09T03:10:02.245Z,19.1272
2023-05-09T03:11:04.068Z,19.1284
2023-05-09T03:12:05.921Z,19.1358
2023-05-09T03:13:07.831Z,19.1227
2023-05-09T03:14:09.556Z,19.1286
2023-05-09T03:15:11.439Z,19.1432
2023-05-09T03:16:13.265Z,19.1453
2023-05-09T03:17:15.070Z,19.1582
2023-05-09T03:18:16.903Z,19.1528
2023-05-09T03:19:18.723Z,19.1329
2023-05-09T03:20:20.555Z,19.1196
2023-05-09T03:21:22.403Z,19.1446
2023-05-09T03:22:24.321Z,19.1492
2023-05-09T03:23:26.132Z,19.1481
2023-05-09T03:24:27.878Z,19.1500
2023-05-09T03:25:29.714Z,19.1391
2023-05-09T03:26:31.574Z,19.1541
2023-05-09T03:27:33.381Z,19.2046
2023-05-09T03:28:35.260Z,19.2046
2023-05-09T03:29:37.080Z,19.2114
2023-05-09T03:30:38.882Z,19.2369
2023-05-09T03:31:40.809Z,19.2525
2023-05-09T03:32:42.580Z,19.2496
2023-05-09T03:33:44.391Z,19.2155
2023-05-09T03:34:46.254Z,19.2120
2023-05-09T03:35:48.054Z,19.2475
2023-05-09T03:36:49.891Z,19.2488
2023-05-09T03:37:51.911Z,19.2346
2023-05-09T03:38:53.567Z,19.2527
2023-05-09T03:39:55.408Z,19.2693
2023-05-09T03:40:57.264Z,19.2568
2023-05-09T03:41:59.060Z,19.2436
2023-05-09T03:43:00.902Z,19.2494
2023-05-09T03:44:02.747Z,19.2529
2023-05-09T03:45:04.576Z,19.2593
2023-05-09T03:46:06.408Z,19.2710
2023-05-09T03:47:08.260Z,19.2917
2023-05-09T03:48:10.109Z,19.2818
2023-05-09T03:49:11.898Z,19.2658
2023-05-09T03:50:13.752Z,19.2718
2023-05-09T03:51:15.558Z,19.2977
2023-05-09T03:52:17.404Z,19.2968
2023-05-09T03:53:19.326Z,19.3026
2023-05-09T03:54:21.063Z,19.2882
2023-05-09T03:55:22.906Z,19.2753
2023-05-09T03:56:24.723Z,19.2837
2023-05-09T03:57:26.573Z,19.3120
2023-05-09T03:58:28.397Z,19.3246
2023-05-09T03:59:30.260Z,19.3217
2023-05-09T04:00:32.075Z,19.2977
2023-05-09T04:01:33.917Z,19.2839
2023-05-09T04:02:35.930Z,19.2831
2023-05-09T04:03:37.679Z,19.3085
2023-05-09T04:04:39.388Z,19.2853
2023-05-09T04:05:41.243Z,19.2860
2023-05-09T04:06:43.069Z,19.2841
2023-05-09T04:07:44.889Z,19.2810
2023-05-09T04:08:46.825Z,19.2753
2023-05-09T04:09:48.583Z,19.2814
2023-05-09T04:10:50.395Z,19.3038
2023-05-09T04:11:52.253Z,19.3166
2023-05-09T04:12:54.123Z,19.3067
2023-05-09T04:13:55.921Z,19.2915
2023-05-09T04:14:58.267Z,19.2894
2023-05-09T04:15:59.580Z,19.2781
2023-05-09T04:17:01.506Z,19.2894
2023-05-09T04:18:03.315Z,19.3096
2023-05-09T04:19:05.061Z,19.3007
2023-05-09T04:20:06.895Z,19.2843
2023-05-09T04:21:08.735Z,19.2821
2023-05-09T04:22:10.579Z,19.2683
2023-05-09T04:23:12.392Z,19.2843
2023-05-09T04:24:14.328Z,19.2773
2023-05-09T04:25:16.398Z,19.2833
2023-05-09T04:26:17.914Z,19.2720
2023-05-09T04:27:19.746Z,19.2697
2023-05-09T04:28:21.581Z,19.2646
2023-05-09T04:29:23.397Z,19.2572
2023-05-09T04:30:25.252Z,19.2757
2023-05-09T04:31:27.166Z,19.2973
2023-05-09T04:32:28.913Z,19.3059
2023-05-09T04:33:30.747Z,19.3001
2023-05-09T04:34:32.578Z,19.3108
2023-05-09T04:35:34.424Z,19.3030
2023-05-09T04:36:36.263Z,19.3040
2023-05-09T04:37:38.065Z,19.2829
2023-05-09T04:38:39.892Z,19.2825
2023-05-09T04:39:41.820Z,19.2605
2023-05-09T04:40:43.589Z,19.2576
2023-05-09T04:41:45.407Z,19.2664
2023-05-09T04:42:47.250Z,19.2839
2023-05-09T04:43:49.066Z,19.3081
2023-05-09T04:44:50.892Z,19.3258
2023-05-09T04:45:52.750Z,19.3071
2023-05-09T04:46:54.557Z,19.3147
2023-05-09T04:47:56.436Z,19.3026
2023-05-09T04:48:58.228Z,19.3024
2023-05-09T04:50:00.061Z,19.2975
2023-05-09T04:51:01.858Z,19.2761
2023-05-09T04:52:03.691Z,19.2685
2023-05-09T04:53:05.517Z,19.2767
2023-05-09T04:54:07.356Z,19.2964
2023-05-09T04:55:09.293Z,19.2923
2023-05-09T04:56:11.015Z,19.2755
2023-05-09T04:57:18.050Z,19.2987
2023-05-09T04:58:17.397Z,19.2968
2023-05-09T04:59:17.976Z,19.2837
2023-05-09T05:00:19.516Z,19.2720
2023-05-09T05:01:21.110Z,19.2634
2023-05-09T05:02:22.721Z,19.2730
2023-05-09T05:03:24.208Z,19.2995
2023-05-09T05:04:25.821Z,19.3003
2023-05-09T05:05:27.901Z,19.2987
2023-05-09T05:06:29.357Z,19.3075
2023-05-09T05:07:31.206Z,19.2896
2023-05-09T05:08:33.008Z,19.2948
2023-05-09T05:09:34.841Z,19.3049
2023-05-09T05:10:36.841Z,19.2987
2023-05-09T05:11:38.539Z,19.3057
2023-05-09T05:12:40.392Z,19.3125
2023-05-09T05:13:42.182Z,19.3198
2023-05-09T05:14:44.015Z,19.3046
2023-05-09T05:15:45.891Z,19.2812
2023-05-09T05:16:47.687Z,19.2775
2023-05-09T05:17:49.560Z,19.2839
2023-05-09T05:18:51.375Z,19.3346
2023-05-09T05:19:53.177Z,19.3367
2023-05-09T05:20:55.018Z,19.3422
2023-05-09T05:21:56.860Z,19.3394
2023-05-09T05:22:58.696Z,19.3363
2023-05-09T05:24:00.553Z,19.3587
2023-05-09T05:25:02.357Z,19.3554
2023-05-09T05:26:04.280Z,19.3287
2023-05-09T05:27:06.045Z,19.3203
2023-05-09T05:28:07.870Z,19.3468
2023-05-09T05:29:09.692Z,19.3498
2023-05-09T05:30:11.572Z,19.3706
2023-05-09T05:31:13.392Z,19.3870
2023-05-09T05:32:15.218Z,19.3735
2023-05-09T05:33:17.060Z,19.3630
2023-05-09T05:34:18.891Z,19.3634
2023-05-09T05:35:20.714Z,19.3416
2023-05-09T05:36:22.583Z,19.2948
2023-05-09T05:37:24.375Z,19.3260
2023-05-09T05:38:26.232Z,19.3192
2023-05-09T05:39:28.064Z,19.3593
2023-05-09T05:40:29.894Z,19.3593
2023-05-09T05:41:31.825Z,19.3283
2023-05-09T05:42:33.592Z,19.3418
2023-05-09T05:43:35.399Z,19.3461
2023-05-09T05:44:37.229Z,19.3726
2023-05-09T05:45:39.088Z,19.3583
2023-05-09T05:46:40.908Z,19.3410
2023-05-09T05:47:42.773Z,19.3535
2023-05-09T05:48:44.599Z,19.3833
2023-05-09T05:49:46.410Z,19.3831
2023-05-09T05:50:48.259Z,19.3529
2023-05-09T05:51:50.076Z,19.3377
2023-05-09T05:52:51.936Z,19.3320
2023-05-09T05:53:53.758Z,19.3445
2023-05-09T05:54:55.616Z,19.3638
2023-05-09T05:55:57.417Z,19.3564
2023-05-09T05:56:59.348Z,19.3601
2023-05-09T05:58:01.105Z,19.3363
2023-05-09T05:59:02.920Z,19.3127
2023-05-09T06:00:04.766Z,19.2886
2023-05-09T06:01:06.660Z,19.2931
2023-05-09T06:02:08.566Z,19.3135
2023-05-09T06:03:10.356Z,19.3291
2023-05-09T06:04:12.201Z,19.3375
2023-05-09T06:05:14.164Z,19.3307
2023-05-09T06:06:15.874Z,19.3344
2023-05-09T06:07:17.711Z,19.3472
2023-05-09T06:08:19.516Z,19.3585
2023-05-09T06:09:21.345Z,19.3661
2023-05-09T06:10:23.189Z,19.3363
2023-05-09T06:11:25.029Z,19.3266
2023-05-09T06:12:28.054Z,19.3587
2023-05-09T06:13:28.783Z,19.3201
2023-05-09T06:14:30.535Z,19.2981
2023-05-09T06:15:32.380Z,19.2730
2023-05-09T06:16:34.255Z,19.3071
2023-05-09T06:17:36.084Z,19.3161
2023-05-09T06:18:37.896Z,19.3223
2023-05-09T06:19:39.773Z,19.3283
2023-05-09T06:20:41.561Z,19.3248
2023-05-09T06:21:43.388Z,19.3313
2023-05-09T06:22:45.240Z,19.3262
2023-05-09T06:24:04.207Z,19.3439
2023-05-09T06:24:49.914Z,19.3244
2023-05-09T06:25:50.772Z,19.3151
2023-05-09T06:26:52.603Z,19.3003
2023-05-09T06:27:54.518Z,19.3057
2023-05-09T06:28:56.247Z,19.3548
2023-05-09T06:29:58.094Z,19.3525
2023-05-09T06:30:59.952Z,19.3486
2023-05-09T06:32:01.789Z,19.3550
2023-05-09T06:33:03.709Z,19.3718
2023-05-09T06:34:05.445Z,19.3706
2023-05-09T06:35:07.305Z,19.3930
2023-05-09T06:36:09.126Z,19.3806
2023-05-09T06:37:10.972Z,19.3552
2023-05-09T06:38:12.825Z,19.3465
2023-05-09T06:39:14.628Z,19.3502
2023-05-09T06:40:16.489Z,19.3574
2023-05-09T06:41:18.314Z,19.3696
2023-05-09T06:42:20.158Z,19.3523
2023-05-09T06:43:22.098Z,19.3611
2023-05-09T06:44:23.822Z,19.3361
2023-05-09T06:45:25.679Z,19.3363
2023-05-09T06:46:27.521Z,19.3332
2023-05-09T06:47:29.328Z,19.3036
2023-05-09T06:48:31.156Z,19.3106
2023-05-09T06:49:33.009Z,19.3367
2023-05-09T06:50:34.875Z,19.3221
2023-05-09T06:51:36.694Z,19.3161
2023-05-09T06:52:38.575Z,19.3155
2023-05-09T06:53:40.351Z,19.3274
2023-05-09T06:54:42.176Z,19.3209
2023-05-09T06:55:44.017Z,19.3494
2023-05-09T06:56:45.869Z,19.3264
2023-05-09T06:57:47.699Z,19.3326
2023-05-09T06:58:49.623Z,19.3088
2023-05-09T06:59:51.354Z,19.3186
2023-05-09T07:00:53.202Z,19.3455
2023-05-09T07:01:55.065Z,19.3478
2023-05-09T07:02:56.995Z,19.3474
2023-05-09T07:03:58.716Z,19.3533
2023-05-09T07:05:00.619Z,19.3866
2023-05-09T07:06:02.362Z,19.3671
2023-05-09T07:07:04.212Z,19.3381
2023-05-09T07:08:06.050Z,19.3718
2023-05-09T07:09:07.897Z,19.3821
2023-05-09T07:10:11.760Z,19.3938
2023-05-09T07:11:11.537Z,19.3874
2023-05-09T07:12:13.382Z,19.3823
2023-05-09T07:13:15.238Z,19.3611
2023-05-09T07:14:17.132Z,19.3809
2023-05-09T07:15:29.095Z,19.3948
2023-05-09T07:16:21.733Z,19.3885
2023-05-09T07:17:23.927Z,19.3802
2023-05-09T07:18:24.399Z,19.3687
2023-05-09T07:19:26.218Z,19.3622
2023-05-09T07:20:28.050Z,19.3909
2023-05-09T07:21:29.913Z,19.3907
2023-05-09T07:22:33.051Z,19.4057
2023-05-09T07:23:33.575Z,19.4287
2023-05-09T07:24:35.377Z,19.4404
2023-05-09T07:25:37.216Z,19.4326
2023-05-09T07:26:39.068Z,19.4246
2023-05-09T07:27:40.874Z,19.4182
2023-05-09T07:28:42.714Z,19.4223
2023-05-09T07:29:44.641Z,19.4273
2023-05-09T07:30:46.393Z,19.4394
2023-05-09T07:31:48.268Z,19.4137
2023-05-09T07:32:50.163Z,19.4110
2023-05-09T07:33:51.879Z,19.4137
2023-05-09T07:34:53.727Z,19.4145
2023-05-09T07:35:55.556Z,19.4186
2023-05-09T07:36:57.386Z,19.4032
2023-05-09T07:37:59.218Z,19.4242
2023-05-09T07:39:01.054Z,19.4209
2023-05-09T07:40:02.882Z,19.4073
2023-05-09T07:41:04.722Z,19.4032
2023-05-09T07:42:06.547Z,19.4063
2023-05-09T07:43:08.381Z,19.4032
2023-05-09T07:44:10.226Z,19.4189
2023-05-09T07:45:12.185Z,19.4318
2023-05-09T07:46:13.886Z,19.4355
2023-05-09T07:47:15.695Z,19.4472
2023-05-09T07:48:17.548Z,19.4375
2023-05-09T07:49:19.381Z,19.4515
2023-05-09T07:50:21.210Z,19.4421
2023-05-09T07:51:23.067Z,19.4435
2023-05-09T07:52:24.860Z,19.4626
2023-05-09T07:53:26.724Z,19.4583
2023-05-09T07:54:28.564Z,19.4733
2023-05-09T07:55:30.381Z,19.4618
2023-05-09T07:56:32.221Z,19.4236
2023-05-09T07:57:34.043Z,19.4275
2023-05-09T07:58:35.878Z,19.4106
2023-05-09T07:59:37.704Z,19.3954
2023-05-09T08:00:39.613Z,19.4082
2023-05-09T08:01:41.362Z,19.4139
2023-05-09T08:02:43.303Z,19.4429
2023-05-09T08:03:45.143Z,19.4172
2023-05-09T08:04:46.859Z,19.4242
2023-05-09T08:05:48.693Z,19.4375
2023-05-09T08:06:50.528Z,19.4355
2023-05-09T08:07:52.360Z,19.4345
2023-05-09T08:08:54.244Z,19.4141
2023-05-09T08:09:56.027Z,19.4281
2023-05-09T08:10:57.851Z,19.4421
2023-05-09T08:11:59.693Z,19.4509
2023-05-09T08:13:01.549Z,19.4400
2023-05-09T08:14:03.387Z,19.4447
2023-05-09T08:15:05.239Z,19.4396
2023-05-09T08:16:07.203Z,19.4482
2023-05-09T08:17:08.854Z,19.4404
2023-05-09T08:18:10.691Z,19.4283
2023-05-09T08:19:12.525Z,19.4410
2023-05-09T08:20:14.353Z,19.4534
2023-05-09T08:21:16.195Z,19.4575
2023-05-09T08:22:18.001Z,19.4468
2023-05-09T08:23:19.830Z,19.4449
2023-05-09T08:24:21.671Z,19.4410
2023-05-09T08:25:23.506Z,19.4328
2023-05-09T08:26:25.354Z,19.4380
2023-05-09T08:27:27.212Z,19.4396
2023-05-09T08:28:29.024Z,19.4468
2023-05-09T08:29:30.858Z,19.4367
2023-05-09T08:30:32.684Z,19.4449
2023-05-09T08:31:34.631Z,19.4388
2023-05-09T08:32:36.380Z,19.4394
2023-05-09T08:33:40.531Z,19.4507
2023-05-09T08:34:40.036Z,19.4427
2023-05-09T08:35:41.854Z,19.4445
2023-05-09T08:36:43.707Z,19.4297
2023-05-09T08:37:45.522Z,19.4429
2023-05-09T08:38:47.364Z,19.4579
2023-05-09T08:39:49.224Z,19.4156
2023-05-09T08:40:51.021Z,19.3724
2023-05-09T08:41:52.869Z,19.3749
2023-05-09T08:42:54.709Z,19.3889
2023-05-09T08:43:56.533Z,19.3772
2023-05-09T08:44:58.362Z,19.3589
2023-05-09T08:46:00.433Z,19.3930
2023-05-09T08:47:02.188Z,19.4104
2023-05-09T08:48:03.912Z,19.4322
2023-05-09T08:49:05.713Z,19.4447
2023-05-09T08:50:07.566Z,19.4347
2023-05-09T08:51:09.386Z,19.4605
2023-05-09T08:52:11.215Z,19.4088
2023-05-09T08:53:13.030Z,19.4184
2023-05-09T08:54:14.876Z,19.4145
2023-05-09T08:55:16.717Z,19.4147
2023-05-09T08:56:18.551Z,19.4281
2023-05-09T08:57:20.373Z,19.4310
2023-05-09T08:58:22.224Z,19.4240
2023-05-09T08:59:24.054Z,19.4345
2023-05-09T09:00:25.874Z,19.4250
2023-05-09T09:01:27.776Z,19.4365
2023-05-09T09:02:29.690Z,19.4045
2023-05-09T09:03:31.378Z,19.3889
2023-05-09T09:04:33.275Z,19.4018
2023-05-09T09:06:38.891Z,19.4258
2023-05-09T09:07:40.437Z,19.3915
2023-05-09T09:08:42.030Z,19.3685
2023-05-09T09:09:43.542Z,19.3737
2023-05-09T09:10:45.131Z,19.3899
2023-05-09T09:11:46.677Z,19.4014
2023-05-09T09:12:50.013Z,19.4006
2023-05-09T09:13:49.779Z,19.4090
2023-05-09T09:14:51.574Z,19.3743
2023-05-09T09:15:53.429Z,19.3597
2023-05-09T09:16:55.284Z,19.3665
2023-05-09T09:17:57.201Z,19.3944
2023-05-09T09:18:59.124Z,19.4067
2023-05-09T09:20:00.734Z,19.4000
2023-05-09T09:21:02.550Z,19.3897
2023-05-09T09:22:04.398Z,19.3913
2023-05-09T09:23:06.240Z,19.3757
2023-05-09T09:24:08.062Z,19.3696
2023-05-09T09:25:09.884Z,19.3796
2023-05-09T09:26:11.711Z,19.4180
2023-05-09T09:27:13.549Z,19.4197
2023-05-09T09:28:15.382Z,19.4219
2023-05-09T09:29:17.229Z,19.4326
2023-05-09T09:30:19.065Z,19.4488
2023-05-09T09:31:20.982Z,19.4519
2023-05-09T09:32:22.855Z,19.4289
2023-05-09T09:33:24.633Z,19.4306
2023-05-09T09:34:26.377Z,19.4349
2023-05-09T09:35:28.239Z,19.4408
2023-05-09T09:36:30.055Z,19.4472
2023-05-09T09:37:31.885Z,19.4585
2023-05-09T09:38:33.704Z,19.4523
2023-05-09T09:39:35.547Z,19.4359
2023-05-09T09:40:37.389Z,19.4608
2023-05-09T09:41:39.254Z,19.4579
2023-05-09T09:42:41.057Z,19.4525
2023-05-09T09:43:42.880Z,19.4267
2023-05-09T09:44:44.710Z,19.4250
2023-05-09T09:45:46.588Z,19.4322
2023-05-09T09:46:48.394Z,19.4435
2023-05-09T09:47:50.308Z,19.4443
2023-05-09T09:48:52.132Z,19.4536
2023-05-09T09:49:53.872Z,19.4659
2023-05-09T09:50:55.728Z,19.4772
2023-05-09T09:51:57.571Z,19.4860
2023-05-09T09:52:59.386Z,19.4914
2023-05-09T09:54:01.257Z,19.5045
2023-05-09T09:55:03.037Z,19.5010
2023-05-09T09:56:04.872Z,19.4959
2023-05-09T09:57:06.698Z,19.4916
2023-05-09T09:58:08.552Z,19.4971
2023-05-09T09:59:10.394Z,19.5000
2023-05-09T10:00:12.279Z,19.5160
2023-05-09T10:01:14.149Z,19.5022
2023-05-09T10:02:15.859Z,19.5125
2023-05-09T10:03:17.795Z,19.5059
2023-05-09T10:04:19.658Z,19.5150
2023-05-09T10:05:21.473Z,19.5027
2023-05-09T10:06:23.303Z,19.4926
2023-05-09T10:07:25.112Z,19.4842
2023-05-09T10:08:26.935Z,19.4599
2023-05-09T10:09:28.781Z,19.4532
2023-05-09T10:10:30.615Z,19.4384
2023-05-09T10:11:32.444Z,19.4246
2023-05-09T10:12:34.288Z,19.4141
2023-05-09T10:13:36.213Z,19.4569
2023-05-09T10:14:37.963Z,19.4848
2023-05-09T10:15:52.278Z,19.4706
2023-05-09T10:16:44.064Z,19.5004
2023-05-09T10:17:43.583Z,19.4723
2023-05-09T10:18:45.446Z,19.4733
2023-05-09T10:19:47.202Z,19.4766
2023-05-09T10:20:48.953Z,19.4963
2023-05-09T10:21:50.776Z,19.4903
2023-05-09T10:22:52.594Z,19.4788
2023-05-09T10:23:54.441Z,19.5080
2023-05-09T10:24:57.662Z,19.5138
2023-05-09T10:25:58.118Z,19.4698
2023-05-09T10:26:59.922Z,19.4766
2023-05-09T10:28:01.770Z,19.4940
2023-05-09T10:29:03.589Z,19.4801
2023-05-09T10:30:05.433Z,19.4901
2023-05-09T10:31:08.846Z,19.4905
2023-05-09T10:32:09.107Z,19.5043
2023-05-09T10:33:10.931Z,19.4856
2023-05-09T10:34:12.786Z,19.4909
2023-05-09T10:35:14.837Z,19.4729
2023-05-09T10:36:16.441Z,19.4805
2023-05-09T10:37:18.291Z,19.4992
2023-05-09T10:38:20.105Z,19.4891
2023-05-09T10:39:21.939Z,19.4905
2023-05-09T10:40:23.762Z,19.4840
2023-05-09T10:41:25.604Z,19.4757
2023-05-09T10:42:27.440Z,19.4977
2023-05-09T10:43:29.477Z,19.5059
2023-05-09T10:44:31.095Z,19.5035
2023-05-09T10:45:32.936Z,19.4924
2023-05-09T10:46:34.784Z,19.5031
2023-05-09T10:47:36.616Z,19.5164
2023-05-09T10:48:38.443Z,19.5121
2023-05-09T10:49:40.279Z,19.5170
2023-05-09T10:50:42.186Z,19.5292
2023-05-09T10:51:43.940Z,19.5004
2023-05-09T10:52:45.782Z,19.5080
2023-05-09T10:53:47.594Z,19.5037
2023-05-09T10:54:49.427Z,19.5103
2023-05-09T10:55:51.296Z,19.4938
2023-05-09T10:56:53.099Z,19.4973
2023-05-09T10:57:54.944Z,19.4951
2023-05-09T10:58:56.753Z,19.4936
2023-05-09T10:59:58.609Z,19.5037
2023-05-09T11:01:00.438Z,19.4852
2023-05-09T11:02:02.307Z,19.4745
2023-05-09T11:03:04.220Z,19.4669
2023-05-09T11:04:05.961Z,19.4739
2023-05-09T11:05:07.779Z,19.4468
2023-05-09T11:06:09.688Z,19.4616
2023-05-09T11:07:11.441Z,19.4620
2023-05-09T11:08:13.295Z,19.4864
2023-05-09T11:09:15.116Z,19.4821
2023-05-09T11:10:17.015Z,19.4883
2023-05-09T11:11:18.780Z,19.5025
2023-05-09T11:12:20.605Z,19.5111
2023-05-09T11:13:22.548Z,19.5031
2023-05-09T11:14:24.316Z,19.4745
2023-05-09T11:15:26.117Z,19.4909
2023-05-09T11:16:27.987Z,19.4955
2023-05-09T11:17:29.800Z,19.4875
2023-05-09T11:18:31.626Z,19.5004
2023-05-09T11:19:33.461Z,19.5088
2023-05-09T11:20:35.296Z,19.5115
2023-05-09T11:21:37.213Z,19.4897
2023-05-09T11:22:38.970Z,19.4651
2023-05-09T11:23:40.817Z,19.4751
2023-05-09T11:24:42.627Z,19.4476
2023-05-09T11:25:44.473Z,19.4665
2023-05-09T11:26:46.326Z,19.4833
2023-05-09T11:27:48.129Z,19.4842
2023-05-09T11:28:49.975Z,19.4803
2023-05-09T11:29:51.807Z,19.4657
2023-05-09T11:30:54.924Z,19.4723
2023-05-09T11:31:55.510Z,19.4622
2023-05-09T11:32:57.406Z,19.4495
2023-05-09T11:33:59.126Z,19.4525
2023-05-09T11:35:00.972Z,19.4700
2023-05-09T11:36:02.804Z,19.4614
2023-05-09T11:37:04.717Z,19.4630
2023-05-09T11:38:06.539Z,19.4554
2023-05-09T11:39:08.307Z,19.4630
2023-05-09T11:40:10.136Z,19.4521
2023-05-09T11:41:11.961Z,19.4642
2023-05-09T11:42:13.804Z,19.4815
2023-05-09T11:43:15.629Z,19.4523
2023-05-09T11:44:17.470Z,19.4377
2023-05-09T11:45:19.329Z,19.4427
2023-05-09T11:46:21.191Z,19.4414
2023-05-09T11:47:23.034Z,19.4599
2023-05-09T11:48:24.832Z,19.4562
2023-05-09T11:49:26.645Z,19.4737
2023-05-09T11:50:28.477Z,19.4768
2023-05-09T11:51:30.314Z,19.4661
2023-05-09T11:52:32.255Z,19.4704
2023-05-09T11:53:33.995Z,19.4766
2023-05-09T11:54:35.811Z,19.4673
2023-05-09T11:55:37.637Z,19.4532
2023-05-09T11:56:39.476Z,19.4384
2023-05-09T11:57:41.330Z,19.4092
2023-05-09T11:58:43.152Z,19.4353
2023-05-09T11:59:44.982Z,19.4441
2023-05-09T12:00:46.826Z,19.4427
2023-05-09T12:01:48.657Z,19.4589
2023-05-09T12:02:50.537Z,19.4721
2023-05-09T12:03:52.431Z,19.4232
2023-05-09T12:04:54.143Z,19.4279
2023-05-09T12:05:55.989Z,19.4534
2023-05-09T12:06:57.807Z,19.4616
2023-05-09T12:07:59.743Z,19.4788
2023-05-09T12:09:01.476Z,19.4575
2023-05-09T12:10:03.322Z,19.4630
2023-05-09T12:11:05.136Z,19.4710
2023-05-09T12:12:06.987Z,19.4575
2023-05-09T12:13:08.876Z,19.4285
2023-05-09T12:14:10.654Z,19.4359
2023-05-09T12:15:12.647Z,19.4394
2023-05-09T12:16:14.363Z,19.4581
2023-05-09T12:17:16.139Z,19.4569
2023-05-09T12:18:17.973Z,19.4474
2023-05-09T12:19:19.805Z,19.4513
2023-05-09T12:20:21.658Z,19.4490
2023-05-09T12:21:23.476Z,19.4698
2023-05-09T12:22:25.332Z,19.4573
2023-05-09T12:23:27.243Z,19.4523
2023-05-09T12:24:28.985Z,19.4597
2023-05-09T12:25:30.814Z,19.4595
2023-05-09T12:26:32.662Z,19.4739
2023-05-09T12:27:34.493Z,19.4702
2023-05-09T12:28:36.336Z,19.4714